createdAt,value
2022-09-10T00:01:20.218Z,89.59
2022-09-10T00:03:49.663Z,89.34
2022-09-10T00:06:19.718Z,89.24
2022-09-10T00:08:47.845Z,89.10
2022-09-10T00:11:21.272Z,89.56
2022-09-10T00:13:49.799Z,89.36
2022-09-10T00:16:21.311Z,89.53
2022-09-10T00:18:49.318Z,89.71
2022-09-10T00:21:19.200Z,90.03
2022-09-10T00:23:46.502Z,89.66
2022-09-10T00:26:22.382Z,90.27
2022-09-10T00:29:00.204Z,89.90
2022-09-10T00:31:30.081Z,90.01
2022-09-10T00:33:59.645Z,89.71
2022-09-10T00:36:30.074Z,90.25
2022-09-10T00:39:00.905Z,89.77
2022-09-10T00:41:29.149Z,89.81
2022-09-10T00:44:05.334Z,90.58
2022-09-10T00:46:44.094Z,89.67
2022-09-10T00:49:21.061Z,90.32
2022-09-10T00:51:52.177Z,89.84
2022-09-10T00:54:25.367Z,90.60
2022-09-10T00:56:55.659Z,90.08
2022-09-10T00:59:27.120Z,90.17
2022-09-10T01:02:00.310Z,89.87
2022-09-10T01:04:33.260Z,90.15
2022-09-10T01:07:01.735Z,90.52
2022-09-10T01:09:30.309Z,90.10
2022-09-10T01:12:17.452Z,90.70
2022-09-10T01:14:48.204Z,90.75
2022-09-10T01:17:22.100Z,90.13
2022-09-10T01:20:25.413Z,91.34
2022-09-10T01:23:17.721Z,91.36
2022-09-10T01:25:51.982Z,91.38
2022-09-10T01:28:35.220Z,91.77
2022-09-10T01:31:41.128Z,91.24
2022-09-10T01:34:19.681Z,91.09
2022-09-10T01:36:52.381Z,90.54
2022-09-10T01:39:24.479Z,90.55
2022-09-10T01:41:55.377Z,91.19
2022-09-10T01:44:47.928Z,90.76
2022-09-10T01:47:22.639Z,90.70
2022-09-10T01:50:02.829Z,90.76
2022-09-10T01:52:40.009Z,90.81
2022-09-10T01:55:23.026Z,91.06
2022-09-10T01:57:53.472Z,91.28
2022-09-10T02:00:24.904Z,91.04
2022-09-10T02:03:16.781Z,91.85
2022-09-10T02:05:51.341Z,92.15
2022-09-10T02:08:31.385Z,91.75
2022-09-10T02:11:01.888Z,91.43
2022-09-10T02:13:30.754Z,91.78
2022-09-10T02:16:00.155Z,91.51
2022-09-10T02:18:28.047Z,91.87
2022-09-10T02:20:58.846Z,91.71
2022-09-10T02:23:46.784Z,91.61
2022-09-10T02:26:17.403Z,91.64
2022-09-10T02:28:45.897Z,91.58
2022-09-10T02:31:14.278Z,91.66
2022-09-10T02:33:41.806Z,91.70
2022-09-10T02:36:09.637Z,91.80
2022-09-10T02:38:37.485Z,92.32
2022-09-10T02:41:05.517Z,91.74
2022-09-10T02:43:36.436Z,92.32
2022-09-10T02:46:08.042Z,92.67
2022-09-10T02:48:35.810Z,92.36
2022-09-10T02:51:03.591Z,92.70
2022-09-10T02:53:32.661Z,93.01
2022-09-10T02:56:01.489Z,93.12
2022-09-10T02:58:31.716Z,92.58
2022-09-10T03:01:19.474Z,93.40
2022-09-10T03:03:56.877Z,93.92
2022-09-10T03:06:26.252Z,93.90
2022-09-10T03:08:58.320Z,94.22
2022-09-10T03:11:28.464Z,93.88
2022-09-10T03:13:56.639Z,93.46
2022-09-10T03:16:24.793Z,94.31
2022-09-10T03:18:55.200Z,93.99
2022-09-10T03:21:25.826Z,93.62
2022-09-10T03:24:11.492Z,93.77
2022-09-10T03:26:40.954Z,93.84
2022-09-10T03:29:08.991Z,94.35
2022-09-10T03:31:36.659Z,94.08
2022-09-10T03:34:04.846Z,94.06
2022-09-10T03:36:31.871Z,94.32
2022-09-10T03:38:59.324Z,93.73
2022-09-10T03:41:38.100Z,94.60
2022-09-10T03:44:06.916Z,94.11
2022-09-10T03:46:34.862Z,94.00
2022-09-10T03:49:03.814Z,94.37
2022-09-10T03:51:32.216Z,94.59
2022-09-10T03:54:00.105Z,94.92
2022-09-10T03:56:28.758Z,94.71
2022-09-10T03:58:55.882Z,95.36
2022-09-10T04:01:22.959Z,94.97
2022-09-10T04:04:06.947Z,95.89
2022-09-10T04:06:35.817Z,96.18
2022-09-10T04:09:09.395Z,96.92
2022-09-10T04:11:36.612Z,96.75
2022-09-10T04:14:03.944Z,96.64
2022-09-10T04:16:32.871Z,97.24
2022-09-10T04:19:00.127Z,96.66
2022-09-10T04:21:28.816Z,96.16
2022-09-10T04:24:01.317Z,96.58
2022-09-10T04:26:28.522Z,96.94
2022-09-10T04:29:00.344Z,97.26
2022-09-10T04:31:27.439Z,96.47
2022-09-10T04:33:55.655Z,96.78
2022-09-10T04:36:22.690Z,95.99
2022-09-10T04:38:50.108Z,95.42
2022-09-10T04:41:20.197Z,95.81
2022-09-10T04:43:47.473Z,95.97
2022-09-10T04:46:14.616Z,96.08
2022-09-10T04:48:52.795Z,96.08
2022-09-10T04:51:31.061Z,95.94
2022-09-10T04:53:59.795Z,96.52
2022-09-10T04:56:26.793Z,96.16
2022-09-10T04:59:02.891Z,96.31
2022-09-10T05:01:30.786Z,96.44
2022-09-10T05:03:57.768Z,96.89
2022-09-10T05:06:25.562Z,96.24
2022-09-10T05:08:52.467Z,96.56
2022-09-10T05:11:20.014Z,95.66
2022-09-10T05:13:50.352Z,95.03
2022-09-10T05:16:17.813Z,93.76
2022-09-10T05:18:45.377Z,92.34
2022-09-10T05:21:13.035Z,91.97
2022-09-10T05:24:00.272Z,92.21
2022-09-10T05:26:31.054Z,92.46
2022-09-10T05:28:59.984Z,92.79
2022-09-10T05:31:28.573Z,91.43
2022-09-10T05:33:56.305Z,89.62
2022-09-10T05:36:23.256Z,88.41
2022-09-10T05:38:51.378Z,85.89
2022-09-10T05:44:33.641Z,81.82
2022-09-10T05:47:01.037Z,77.17
2022-09-10T05:49:30.510Z,72.69
2022-09-10T05:51:58.323Z,72.32
2022-09-10T05:54:25.813Z,69.99
2022-09-10T05:56:52.813Z,69.05
2022-09-10T05:59:21.019Z,67.37
2022-09-10T06:01:48.731Z,68.24
2022-09-10T06:05:53.184Z,66.02
2022-09-10T06:08:23.283Z,67.02
2022-09-10T06:11:02.912Z,67.48
2022-09-10T06:13:31.445Z,66.36
2022-09-10T06:16:06.310Z,67.07
2022-09-10T06:18:39.079Z,66.58
2022-09-10T06:21:18.831Z,66.84
2022-09-10T06:23:46.373Z,66.58
2022-09-10T06:26:14.525Z,66.06
2022-09-10T06:28:43.063Z,66.84
2022-09-10T06:31:17.338Z,66.13
2022-09-10T06:33:45.433Z,65.97
2022-09-10T06:36:13.023Z,64.85
2022-09-10T06:38:40.919Z,63.84
2022-09-10T06:41:12.238Z,64.35
2022-09-10T06:43:41.762Z,63.04
2022-09-10T06:46:50.900Z,63.87
2022-09-10T06:49:03.967Z,63.59
2022-09-10T06:51:33.753Z,63.78
2022-09-10T06:54:10.976Z,63.24
2022-09-10T06:56:39.468Z,62.06
2022-09-10T06:59:08.128Z,61.53
2022-09-10T07:01:36.508Z,60.10
2022-09-10T07:04:04.510Z,61.91
2022-09-10T07:06:36.094Z,61.43
2022-09-10T07:09:05.397Z,61.01
2022-09-10T07:11:33.412Z,59.48
2022-09-10T07:14:02.439Z,59.29
2022-09-10T07:16:33.609Z,59.50
2022-09-10T07:19:03.940Z,59.98
2022-09-10T07:21:40.419Z,60.19
2022-09-10T07:24:13.251Z,60.66
2022-09-10T07:26:41.983Z,61.29
2022-09-10T07:29:10.756Z,61.26
2022-09-10T07:31:42.625Z,61.25
2022-09-10T07:34:10.829Z,61.50
2022-09-10T07:36:42.013Z,61.34
2022-09-10T07:39:15.113Z,62.01
2022-09-10T07:41:48.522Z,62.21
2022-09-10T07:44:16.703Z,63.22
2022-09-10T07:46:44.754Z,62.60
2022-09-10T07:49:16.164Z,63.50
2022-09-10T07:51:44.116Z,62.92
2022-09-10T07:54:12.632Z,60.53
2022-09-10T07:56:40.885Z,59.69
2022-09-10T07:59:09.105Z,59.57
2022-09-10T08:01:38.864Z,59.56
2022-09-10T08:04:27.669Z,59.60
2022-09-10T08:07:05.845Z,59.68
2022-09-10T08:09:34.814Z,60.38
2022-09-10T08:12:03.937Z,60.13
2022-09-10T08:14:34.199Z,60.84
2022-09-10T08:17:02.906Z,60.34
2022-09-10T08:19:31.730Z,60.26
2022-09-10T08:22:13.501Z,60.31
2022-09-10T08:24:42.586Z,60.36
2022-09-10T08:27:12.892Z,60.82
2022-09-10T08:29:42.097Z,60.57
2022-09-10T08:32:14.028Z,60.20
2022-09-10T08:34:45.595Z,60.76
2022-09-10T08:37:14.592Z,60.21
2022-09-10T08:39:43.783Z,60.20
2022-09-10T08:42:32.151Z,61.14
2022-09-10T08:45:08.080Z,60.39
2022-09-10T08:48:25.269Z,58.58
2022-09-10T08:51:17.071Z,59.50
2022-09-10T08:54:33.350Z,60.67
2022-09-10T08:56:54.566Z,58.91
2022-09-10T08:59:34.556Z,61.15
2022-09-10T09:02:47.172Z,59.69
2022-09-10T09:05:26.962Z,54.73
2022-09-10T09:07:59.416Z,54.51
2022-09-10T09:10:36.259Z,55.17
2022-09-10T09:13:29.048Z,52.17
2022-09-10T09:16:21.593Z,52.15
2022-09-10T09:18:49.810Z,51.60
2022-09-10T09:21:23.243Z,48.59
2022-09-10T09:24:17.237Z,46.76
2022-09-10T09:26:51.118Z,46.46
2022-09-10T09:29:28.814Z,45.58
2022-09-10T09:32:19.242Z,44.75
2022-09-10T09:35:24.898Z,44.86
2022-09-10T09:38:08.201Z,43.33
2022-09-10T09:40:57.320Z,43.25
2022-09-10T09:44:10.595Z,42.91
2022-09-10T09:46:39.591Z,41.12
2022-09-10T09:49:18.566Z,40.97
2022-09-10T09:51:49.926Z,38.90
2022-09-10T09:55:12.512Z,38.44
2022-09-10T09:57:33.354Z,38.47
2022-09-10T10:00:37.446Z,37.26
2022-09-10T10:03:22.107Z,38.50
2022-09-10T10:05:52.995Z,38.78
2022-09-10T10:08:31.588Z,39.51
2022-09-10T10:11:01.251Z,39.22
2022-09-10T10:13:48.903Z,39.71
2022-09-10T10:16:36.789Z,39.40
2022-09-10T10:19:25.364Z,39.43
2022-09-10T10:22:00.948Z,38.20
2022-09-10T10:24:33.592Z,37.61
2022-09-10T10:27:03.459Z,38.54
2022-09-10T10:29:32.116Z,39.87
2022-09-10T10:32:05.489Z,39.98
2022-09-10T10:34:57.238Z,40.17
2022-09-10T10:37:36.967Z,39.86
2022-09-10T10:40:20.530Z,40.84
2022-09-10T10:43:37.102Z,40.82
2022-09-10T10:46:38.175Z,41.62
2022-09-10T10:49:31.068Z,41.28
2022-09-10T10:52:36.935Z,41.68
2022-09-10T10:55:27.278Z,41.71
2022-09-10T10:58:17.880Z,41.57
2022-09-10T11:00:56.098Z,40.84
2022-09-10T11:03:59.129Z,40.50
2022-09-10T11:06:36.671Z,40.81
2022-09-10T11:09:18.174Z,39.47
2022-09-10T11:12:02.092Z,41.90
2022-09-10T11:15:20.019Z,41.18
2022-09-10T11:18:14.615Z,41.29
2022-09-10T11:21:09.432Z,43.25
2022-09-10T11:23:52.699Z,42.91
2022-09-10T11:26:52.784Z,43.05
2022-09-10T11:29:45.138Z,45.00
2022-09-10T11:32:41.393Z,43.02
2022-09-10T11:35:23.947Z,44.33
2022-09-10T11:38:25.859Z,46.40
2022-09-10T11:41:28.831Z,47.77
2022-09-10T11:44:36.918Z,48.99
2022-09-10T11:47:24.643Z,49.00
2022-09-10T11:50:20.672Z,48.48
2022-09-10T11:52:58.865Z,47.77
2022-09-10T11:56:01.551Z,47.27
2022-09-10T11:59:04.477Z,47.13
2022-09-10T12:02:20.216Z,46.09
2022-09-10T12:04:49.390Z,45.67
2022-09-10T12:08:25.894Z,45.68
2022-09-10T12:11:42.404Z,43.74
2022-09-10T12:14:20.427Z,44.10
2022-09-10T12:17:07.816Z,43.69
2022-09-10T12:19:48.767Z,43.77
2022-09-10T12:22:34.313Z,43.71
2022-09-10T12:25:31.764Z,43.15
2022-09-10T12:28:08.897Z,43.91
2022-09-10T12:30:40.338Z,43.92
2022-09-10T12:33:18.396Z,42.26
2022-09-10T12:35:51.485Z,42.46
2022-09-10T12:38:59.537Z,40.93
2022-09-10T12:41:28.584Z,41.32
2022-09-10T12:44:03.722Z,42.56
2022-09-10T12:47:22.998Z,41.72
2022-09-10T12:49:54.727Z,41.31
2022-09-10T12:52:50.701Z,42.27
2022-09-10T12:56:05.527Z,42.53
2022-09-10T12:59:19.365Z,41.33
2022-09-10T13:01:57.331Z,42.28
2022-09-10T13:04:43.119Z,42.04
2022-09-10T13:07:56.569Z,41.93
2022-09-10T13:10:35.424Z,41.33
2022-09-10T13:13:25.746Z,40.92
2022-09-10T13:16:30.165Z,40.02
2022-09-10T13:19:15.219Z,39.33
2022-09-10T13:21:47.280Z,38.89
2022-09-10T13:24:37.896Z,39.81
2022-09-10T13:27:55.054Z,40.58
2022-09-10T13:30:28.711Z,39.75
2022-09-10T13:33:12.973Z,41.05
2022-09-10T13:36:33.739Z,41.18
2022-09-10T13:39:15.024Z,41.77
2022-09-10T13:42:15.517Z,42.21
2022-09-10T13:48:02.729Z,42.53
2022-09-10T13:50:59.654Z,44.25
2022-09-10T13:56:26.779Z,46.43
2022-09-10T13:59:03.195Z,45.87
2022-09-10T14:01:53.188Z,47.31
2022-09-10T14:04:31.956Z,46.77
2022-09-10T14:07:15.958Z,48.04
2022-09-10T14:09:57.711Z,46.58
2022-09-10T14:12:38.848Z,47.03
2022-09-10T14:15:12.247Z,45.76
2022-09-10T14:17:49.010Z,48.08
2022-09-10T14:23:26.581Z,47.10
2022-09-10T14:26:35.348Z,48.95
2022-09-10T14:29:24.772Z,50.47
2022-09-10T14:31:55.439Z,51.59
2022-09-10T14:34:37.212Z,52.17
2022-09-10T14:37:38.870Z,53.61
2022-09-10T14:40:36.977Z,54.29
2022-09-10T14:43:17.178Z,53.19
2022-09-10T14:45:51.263Z,54.66
2022-09-10T14:51:49.743Z,54.61
2022-09-10T14:54:30.318Z,53.30
2022-09-10T14:58:00.035Z,54.64
2022-09-10T15:00:35.194Z,55.43
2022-09-10T15:03:05.783Z,54.87
2022-09-10T15:05:41.385Z,57.07
2022-09-10T15:08:31.480Z,58.92
2022-09-10T15:11:01.564Z,63.42
2022-09-10T15:13:33.037Z,72.99
2022-09-10T15:16:10.662Z,78.08
2022-09-10T15:18:48.775Z,83.07
2022-09-10T15:21:29.219Z,88.36
2022-09-10T15:24:07.560Z,94.36
2022-09-10T15:27:05.929Z,95.78
2022-09-10T15:30:03.201Z,96.65
2022-09-10T15:32:32.376Z,97.90
2022-09-10T15:35:02.973Z,100.00
2022-09-10T15:37:36.262Z,100.00
2022-09-10T15:40:15.769Z,100.00
2022-09-10T15:42:54.146Z,100.00
2022-09-10T15:45:31.091Z,100.00
2022-09-10T15:48:04.645Z,100.00
2022-09-10T15:50:34.709Z,100.00
2022-09-10T15:53:11.910Z,100.00
2022-09-10T15:55:41.013Z,100.00
2022-09-10T16:00:59.804Z,100.00
2022-09-10T16:03:33.083Z,100.00
2022-09-10T16:06:06.727Z,100.00
2022-09-10T16:08:40.533Z,100.00
2022-09-10T16:11:14.107Z,100.00
2022-09-10T16:13:54.136Z,100.00
2022-09-10T16:16:27.258Z,100.00
2022-09-10T16:18:58.430Z,100.00
2022-09-10T16:21:34.352Z,100.00
2022-09-10T16:24:10.349Z,100.00
2022-09-10T16:26:48.009Z,100.00
2022-09-10T16:29:24.930Z,100.00
2022-09-10T16:31:58.219Z,100.00
2022-09-10T16:34:31.663Z,100.00
2022-09-10T16:37:01.645Z,100.00
2022-09-10T16:39:31.485Z,100.00
2022-09-10T16:42:16.410Z,100.00
2022-09-10T16:44:46.129Z,100.00
2022-09-10T16:47:15.741Z,100.00
2022-09-10T16:49:45.415Z,100.00
2022-09-10T16:52:15.208Z,100.00
2022-09-10T16:54:47.308Z,100.00
2022-09-10T16:57:16.855Z,100.00
2022-09-10T16:59:49.286Z,100.00
2022-09-10T17:02:21.865Z,100.00
2022-09-10T17:04:51.791Z,100.00
2022-09-10T17:10:03.401Z,100.00
2022-09-10T17:12:32.634Z,100.00
2022-09-10T17:15:01.631Z,100.00
2022-09-10T17:17:32.005Z,100.00
2022-09-10T17:20:02.070Z,100.00
2022-09-10T17:22:36.796Z,100.00
2022-09-10T17:25:05.727Z,100.00
2022-09-10T17:27:36.066Z,100.00
2022-09-10T17:30:05.015Z,100.00
2022-09-10T17:32:33.952Z,100.00
2022-09-10T17:35:03.063Z,100.00
2022-09-10T17:37:33.583Z,100.00
2022-09-10T17:40:02.746Z,100.00
2022-09-10T17:42:34.689Z,100.00
2022-09-10T17:45:05.681Z,100.00
2022-09-10T17:47:35.460Z,100.00
2022-09-10T17:50:04.502Z,100.00
2022-09-10T17:52:35.246Z,100.00
2022-09-10T17:55:04.309Z,100.00
2022-09-10T17:57:33.587Z,100.00
2022-09-10T18:00:02.677Z,100.00
2022-09-10T18:02:32.476Z,100.00
2022-09-10T18:05:01.931Z,100.00
2022-09-10T18:07:30.417Z,100.00
2022-09-10T18:09:59.248Z,100.00
2022-09-10T18:12:27.612Z,100.00
2022-09-10T18:14:56.486Z,100.00
2022-09-10T18:17:25.839Z,100.00
2022-09-10T18:20:00.398Z,100.00
2022-09-10T18:22:29.419Z,100.00
2022-09-10T18:24:57.996Z,100.00
2022-09-10T18:27:29.159Z,100.00
2022-09-10T18:29:58.500Z,100.00
2022-09-10T18:32:28.320Z,100.00
2022-09-10T18:34:56.791Z,100.00
2022-09-10T18:37:25.675Z,100.00
2022-09-10T18:39:55.326Z,100.00
2022-09-10T18:42:25.722Z,100.00
2022-09-10T18:44:54.417Z,100.00
2022-09-10T18:47:43.525Z,100.00
2022-09-10T18:50:12.167Z,100.00
2022-09-10T18:52:40.639Z,100.00
2022-09-10T18:55:10.307Z,100.00
2022-09-10T18:57:39.411Z,100.00
2022-09-10T19:00:11.563Z,100.00
2022-09-10T19:02:40.946Z,100.00
2022-09-10T19:05:12.384Z,100.00
2022-09-10T19:07:41.352Z,100.00
2022-09-10T19:10:10.027Z,100.00
2022-09-10T19:12:38.956Z,100.00
2022-09-10T19:15:08.342Z,100.00
2022-09-10T19:17:37.581Z,100.00
2022-09-10T19:20:06.913Z,100.00
2022-09-10T19:22:38.411Z,100.00
2022-09-10T19:25:07.770Z,100.00
2022-09-10T19:27:38.125Z,100.00
2022-09-10T19:30:07.562Z,100.00
2022-09-10T19:32:36.279Z,100.00
2022-09-10T19:35:05.379Z,100.00
2022-09-10T19:37:34.280Z,100.00
2022-09-10T19:40:05.766Z,100.00
2022-09-10T19:42:34.801Z,100.00
2022-09-10T19:45:13.844Z,100.00
2022-09-10T19:47:49.356Z,100.00
2022-09-10T19:50:23.123Z,100.00
2022-09-10T19:52:54.726Z,100.00
2022-09-10T19:55:24.955Z,100.00
2022-09-10T19:58:00.864Z,100.00
2022-09-10T20:00:45.810Z,100.00
2022-09-10T20:03:15.988Z,100.00
2022-09-10T20:05:45.519Z,100.00
2022-09-10T20:08:15.005Z,100.00
2022-09-10T20:10:54.822Z,100.00
2022-09-10T20:13:25.943Z,100.00
2022-09-10T20:15:57.991Z,100.00
2022-09-10T20:18:30.858Z,100.00
2022-09-10T20:21:17.072Z,100.00
2022-09-10T20:23:49.072Z,100.00
2022-09-10T20:26:23.645Z,100.00
2022-09-10T20:28:59.666Z,100.00
2022-09-10T20:31:30.904Z,100.00
2022-09-10T20:34:01.805Z,100.00
2022-09-10T20:36:34.778Z,100.00
2022-09-10T20:39:04.754Z,100.00
2022-09-10T20:41:36.352Z,100.00
2022-09-10T20:44:07.858Z,100.00
2022-09-10T20:46:36.390Z,100.00
2022-09-10T20:49:05.079Z,100.00
2022-09-10T20:51:39.606Z,100.00
2022-09-10T20:54:17.263Z,100.00
2022-09-10T20:56:46.610Z,100.00
2022-09-10T20:59:23.231Z,100.00
2022-09-10T21:01:54.673Z,100.00
2022-09-10T21:04:27.867Z,100.00
2022-09-10T21:06:57.832Z,100.00
2022-09-10T21:09:26.108Z,100.00
2022-09-10T21:11:55.077Z,100.00
2022-09-10T21:14:26.779Z,100.00
2022-09-10T21:16:55.930Z,100.00
2022-09-10T21:19:27.906Z,100.00
2022-09-10T21:21:59.384Z,100.00
2022-09-10T21:24:28.818Z,100.00
2022-09-10T21:26:57.046Z,100.00
2022-09-10T21:29:34.913Z,100.00
2022-09-10T21:32:04.644Z,100.00
2022-09-10T21:34:33.432Z,100.00
2022-09-10T21:37:01.908Z,100.00
2022-09-10T21:39:30.567Z,100.00
2022-09-10T21:42:02.522Z,100.00
2022-09-10T21:44:32.928Z,100.00
2022-09-10T21:47:01.825Z,100.00
2022-09-10T21:49:30.157Z,100.00
2022-09-10T21:52:07.304Z,100.00
2022-09-10T21:54:37.747Z,100.00
2022-09-10T21:57:12.025Z,100.00
2022-09-10T21:59:42.462Z,100.00
2022-09-10T22:02:11.844Z,100.00
2022-09-10T22:04:41.417Z,100.00
2022-09-10T22:07:11.460Z,100.00
2022-09-10T22:09:39.995Z,100.00
2022-09-10T22:12:08.409Z,100.00
2022-09-10T22:14:39.819Z,100.00
2022-09-10T22:17:15.402Z,100.00
2022-09-10T22:19:43.539Z,100.00
2022-09-10T22:22:12.406Z,100.00
2022-09-10T22:24:40.510Z,100.00
2022-09-10T22:27:09.503Z,100.00
2022-09-10T22:29:37.649Z,100.00
2022-09-10T22:32:06.397Z,100.00
2022-09-10T22:34:42.024Z,100.00
2022-09-10T22:37:10.493Z,100.00
2022-09-10T22:39:38.879Z,100.00
2022-09-10T22:42:08.639Z,100.00
2022-09-10T22:44:36.744Z,100.00
2022-09-10T22:47:14.747Z,100.00
2022-09-10T22:49:43.311Z,100.00
2022-09-10T22:52:12.884Z,100.00
2022-09-10T22:54:41.406Z,100.00
2022-09-10T22:57:10.075Z,100.00
2022-09-10T22:59:39.441Z,100.00
2022-09-10T23:02:07.618Z,100.00
2022-09-10T23:04:35.907Z,100.00
2022-09-10T23:07:07.121Z,100.00
2022-09-10T23:09:35.838Z,100.00
2022-09-10T23:12:04.925Z,100.00
2022-09-10T23:14:34.060Z,100.00
2022-09-10T23:17:02.532Z,100.00
2022-09-10T23:19:38.844Z,100.00
2022-09-10T23:22:07.598Z,100.00
2022-09-10T23:24:36.310Z,100.00
2022-09-10T23:27:05.110Z,100.00
2022-09-10T23:29:33.567Z,100.00
2022-09-10T23:32:02.147Z,100.00
2022-09-10T23:34:30.494Z,100.00
2022-09-10T23:36:58.905Z,100.00
2022-09-10T23:39:27.883Z,100.00
2022-09-10T23:41:59.489Z,100.00
2022-09-10T23:44:29.474Z,100.00
2022-09-10T23:46:58.717Z,100.00
2022-09-10T23:49:26.980Z,100.00
2022-09-10T23:51:55.246Z,100.00
2022-09-10T23:54:23.447Z,100.00
2022-09-10T23:56:52.284Z,100.00
2022-09-10T23:59:21.124Z,100.00
